Time;durP1;ratioP1;P1;durP2;ratioP2;P2;SDS_P1;SDS_P2;PMS_P1;PMS_P2;Temp;Humidity;BMP_temperature;BMP_pressure;BME280_temperature;BME280_humidity;BME280_pressure;Samples;Min_cycle;Max_cycle;Signal;HPM_P1;HPM_P2
2023/01/19 00:01:53;;;;;;;;;;;4.10;99.90;;;;;;5019081;28;19918;-74
2023/01/19 00:04:18;;;;;;;;;;;4.10;99.90;;;;;;5023170;28;19913;-74
2023/01/19 00:06:44;;;;;;;;;;;4.10;99.90;;;;;;5025993;28;19917;-76
2023/01/19 00:09:09;;;;;;;;;;;4.10;99.90;;;;;;5016892;28;19909;-76
2023/01/19 00:11:35;;;;;;;;;;;4.10;99.90;;;;;;5022028;28;19909;-73
2023/01/19 00:14:00;;;;;;;;;;;4.10;99.90;;;;;;5021199;28;19910;-73
2023/01/19 00:16:26;;;;;;;;;;;4.00;99.90;;;;;;5014285;28;20048;-74
2023/01/19 00:18:51;;;;;;;;;;;3.80;99.90;;;;;;5013061;28;19971;-74
2023/01/19 00:21:18;;;;;;;;;;;3.70;99.90;;;;;;5006298;28;19917;-75
2023/01/19 00:23:46;;;;;;;;;;;3.70;99.90;;;;;;5017961;28;20272;-73
2023/01/19 00:26:15;;;;;;;;;;;3.90;99.90;;;;;;5016573;28;19916;-74
2023/01/19 00:28:41;;;;;;;;;;;3.90;99.90;;;;;;5013426;28;19960;-73
2023/01/19 00:31:06;;;;;;;;;;;4.00;99.90;;;;;;5024520;28;19957;-77
2023/01/19 00:33:32;;;;;;;;;;;4.00;99.90;;;;;;5013909;28;19913;-75
2023/01/19 00:35:57;;;;;;;;;;;4.00;99.90;;;;;;5006485;28;19967;-74
2023/01/19 00:38:23;;;;;;;;;;;4.00;99.90;;;;;;4999667;28;19917;-73
2023/01/19 00:40:48;;;;;;;;;;;4.10;99.90;;;;;;5004070;28;19922;-75
2023/01/19 00:43:14;;;;;;;;;;;4.10;99.90;;;;;;5004096;28;20005;-76
2023/01/19 00:45:40;;;;;;;;;;;4.10;99.90;;;;;;5005919;28;19913;-72
2023/01/19 00:48:06;;;;;;;;;;;4.20;99.90;;;;;;5004749;28;19917;-73
2023/01/19 00:50:32;;;;;;;;;;;4.30;99.90;;;;;;5002975;28;19968;-73
2023/01/19 00:53:01;;;;;;;;;;;4.20;99.90;;;;;;5008075;28;19913;-75
2023/01/19 00:55:28;;;;;;;;;;;4.00;99.90;;;;;;5010613;28;19931;-73
2023/01/19 00:57:53;;;;;;;;;;;4.00;99.90;;;;;;5007732;28;19932;-73
2023/01/19 01:00:19;;;;;;;;;;;4.00;99.90;;;;;;5008932;28;19918;-74
2023/01/19 01:02:45;;;;;;;;;;;3.90;99.90;;;;;;5005636;28;20371;-76
2023/01/19 01:05:11;;;;;;;;;;;3.90;99.90;;;;;;5009006;28;20349;-75
2023/01/19 01:07:39;;;;;;;;;;;3.90;99.90;;;;;;5002030;28;19925;-74
2023/01/19 01:10:07;;;;;;;;;;;4.00;99.90;;;;;;5003498;28;19968;-74
2023/01/19 01:12:33;;;;;;;;;;;4.10;99.90;;;;;;4995956;28;20386;-74
2023/01/19 01:14:58;;;;;;;;;;;4.10;99.90;;;;;;5010219;28;19913;-75
2023/01/19 01:17:24;;;;;;;;;;;4.20;99.90;;;;;;5001578;28;20399;-73
2023/01/19 01:19:51;;;;;;;;;;;4.10;99.90;;;;;;5006583;28;19945;-73
2023/01/19 01:22:16;;;;;;;;;;;4.10;99.90;;;;;;5006207;28;19941;-75
2023/01/19 01:24:41;;;;;;;;;;;4.20;99.90;;;;;;5002379;28;19910;-75
2023/01/19 01:27:07;;;;;;;;;;;4.10;99.90;;;;;;5002259;28;19913;-74
2023/01/19 01:29:34;;;;;;;;;;;4.30;99.90;;;;;;5002316;28;20429;-74
2023/01/19 01:32:00;;;;;;;;;;;4.30;99.90;;;;;;5011663;28;20196;-73
2023/01/19 01:34:25;;;;;;;;;;;4.40;99.90;;;;;;5012710;28;19913;-74
2023/01/19 01:36:51;;;;;;;;;;;4.40;99.90;;;;;;5018844;28;19925;-75
2023/01/19 01:39:16;;;;;;;;;;;4.40;99.90;;;;;;5011999;28;20314;-75
2023/01/19 01:41:42;;;;;;;;;;;4.40;99.90;;;;;;5009992;28;20079;-74
2023/01/19 01:44:26;;;;;;;;;;;4.40;99.90;;;;;;5005157;28;20259;-74
2023/01/19 01:46:52;;;;;;;;;;;4.40;99.90;;;;;;5008569;28;20382;-75
2023/01/19 01:49:17;;;;;;;;;;;4.40;99.90;;;;;;4993568;28;19914;-75
2023/01/19 01:51:45;;;;;;;;;;;4.40;99.90;;;;;;5008988;28;20004;-76
2023/01/19 01:54:17;;;;;;;;;;;4.40;99.90;;;;;;5003029;28;19913;-75
2023/01/19 01:56:44;;;;;;;;;;;4.40;99.90;;;;;;5012200;28;19988;-75
2023/01/19 01:59:12;;;;;;;;;;;4.40;99.90;;;;;;5022252;28;19922;-73
2023/01/19 02:04:22;;;;;;;;;;;4.40;99.90;;;;;;5013446;28;19971;-73
2023/01/19 02:15:01;;;;;;;;;;;4.20;99.90;;;;;;5011015;28;19920;-75
2023/01/19 02:17:27;;;;;;;;;;;4.20;99.90;;;;;;5001657;28;19917;-76
2023/01/19 02:19:53;;;;;;;;;;;4.20;99.90;;;;;;5012944;28;20320;-73
2023/01/19 02:22:28;;;;;;;;;;;4.20;99.90;;;;;;5008729;28;19929;-75
2023/01/19 02:24:54;;;;;;;;;;;4.10;99.90;;;;;;5015544;28;19917;-76
2023/01/19 02:27:19;;;;;;;;;;;4.10;99.90;;;;;;5003689;28;20298;-76
2023/01/19 02:29:45;;;;;;;;;;;4.10;99.90;;;;;;5005191;28;19920;-74
2023/01/19 02:32:10;;;;;;;;;;;4.10;99.90;;;;;;5012740;28;20425;-75
2023/01/19 02:34:36;;;;;;;;;;;4.10;99.90;;;;;;5005970;28;19923;-74
2023/01/19 02:37:05;;;;;;;;;;;4.10;99.90;;;;;;5007609;28;20111;-75
2023/01/19 02:39:44;;;;;;;;;;;4.00;99.90;;;;;;5009788;28;19920;-75
2023/01/19 02:42:17;;;;;;;;;;;4.00;99.90;;;;;;5002427;28;20233;-73
2023/01/19 02:44:46;;;;;;;;;;;3.70;99.90;;;;;;5009695;28;20266;-74
2023/01/19 02:47:12;;;;;;;;;;;3.70;99.90;;;;;;4999835;28;19965;-76
2023/01/19 02:49:37;;;;;;;;;;;3.60;99.90;;;;;;5009996;28;19991;-73
2023/01/19 02:52:03;;;;;;;;;;;3.60;99.90;;;;;;5001721;28;19914;-74
2023/01/19 02:54:47;;;;;;;;;;;3.60;99.90;;;;;;5007014;28;19913;-76
2023/01/19 02:57:31;;;;;;;;;;;3.40;99.90;;;;;;5008215;28;20115;-73
2023/01/19 03:00:10;;;;;;;;;;;3.20;99.90;;;;;;5004471;28;20265;-73
2023/01/19 03:02:56;;;;;;;;;;;3.10;99.90;;;;;;4998197;28;19922;-76
2023/01/19 03:05:25;;;;;;;;;;;3.10;99.90;;;;;;5004900;28;19920;-76
2023/01/19 03:07:51;;;;;;;;;;;3.10;99.90;;;;;;5006961;28;19956;-75
2023/01/19 03:10:25;;;;;;;;;;;3.20;99.90;;;;;;5014706;28;20323;-76
2023/01/19 03:13:09;;;;;;;;;;;3.00;99.90;;;;;;5011371;28;19917;-77
2023/01/19 03:15:41;;;;;;;;;;;3.00;99.90;;;;;;5007157;28;20008;-73
2023/01/19 03:18:08;;;;;;;;;;;3.00;99.90;;;;;;5004769;28;19979;-73
2023/01/19 03:20:33;;;;;;;;;;;3.10;99.90;;;;;;5006779;28;19913;-73
2023/01/19 03:23:00;;;;;;;;;;;2.90;99.90;;;;;;4999159;28;20251;-74
2023/01/19 03:25:26;;;;;;;;;;;2.80;99.90;;;;;;5002419;28;20588;-75
2023/01/19 03:27:53;;;;;;;;;;;2.90;99.90;;;;;;5006423;28;20362;-75
2023/01/19 03:30:21;;;;;;;;;;;2.90;99.90;;;;;;5016835;28;19917;-73
2023/01/19 03:32:49;;;;;;;;;;;3.00;99.90;;;;;;5010128;28;20203;-75
2023/01/19 03:35:16;;;;;;;;;;;3.20;99.90;;;;;;5007505;28;19984;-76
2023/01/19 03:37:43;;;;;;;;;;;3.20;99.90;;;;;;5009224;28;20303;-74
2023/01/19 03:40:10;;;;;;;;;;;3.20;99.90;;;;;;5030944;28;19917;-75
2023/01/19 03:42:36;;;;;;;;;;;3.40;99.90;;;;;;4996875;28;20592;-75
2023/01/19 03:45:02;;;;;;;;;;;3.40;99.90;;;;;;5006301;28;19913;-74
2023/01/19 03:47:27;;;;;;;;;;;3.50;99.90;;;;;;5009712;28;19913;-76
2023/01/19 03:49:55;;;;;;;;;;;3.50;99.90;;;;;;4998071;28;19914;-75
2023/01/19 03:52:34;;;;;;;;;;;3.50;99.90;;;;;;5004120;28;19945;-75
2023/01/19 03:55:00;;;;;;;;;;;3.70;99.90;;;;;;5004947;28;19992;-79
2023/01/19 03:57:26;;;;;;;;;;;3.60;99.90;;;;;;5005263;28;19968;-75
2023/01/19 03:59:52;;;;;;;;;;;3.50;99.90;;;;;;5007033;28;20358;-76
2023/01/19 04:02:18;;;;;;;;;;;3.70;99.90;;;;;;5005302;28;20291;-76
2023/01/19 04:04:43;;;;;;;;;;;3.70;99.90;;;;;;5008456;28;20115;-76
2023/01/19 04:07:10;;;;;;;;;;;3.60;99.90;;;;;;5011919;28;19925;-77
2023/01/19 04:09:35;;;;;;;;;;;3.60;99.90;;;;;;5004525;28;19967;-75
2023/01/19 04:12:02;;;;;;;;;;;3.70;99.90;;;;;;5004412;28;20385;-75
2023/01/19 04:14:28;;;;;;;;;;;3.70;99.90;;;;;;5005756;28;19910;-76
2023/01/19 04:16:53;;;;;;;;;;;3.80;99.90;;;;;;5009489;28;19920;-75
2023/01/19 04:19:19;;;;;;;;;;;3.80;99.90;;;;;;5019399;28;19917;-75
2023/01/19 04:21:46;;;;;;;;;;;3.80;99.90;;;;;;5011138;28;19910;-77
2023/01/19 04:24:12;;;;;;;;;;;4.00;99.90;;;;;;5004523;28;19936;-75
2023/01/19 04:26:38;;;;;;;;;;;4.20;99.90;;;;;;5010843;28;20603;-74
2023/01/19 04:29:04;;;;;;;;;;;4.10;99.90;;;;;;5018166;28;19913;-77
2023/01/19 04:31:30;;;;;;;;;;;4.20;99.90;;;;;;5011678;28;19917;-75
2023/01/19 04:33:56;;;;;;;;;;;4.30;99.90;;;;;;5005198;28;20008;-76
2023/01/19 04:36:21;;;;;;;;;;;4.30;99.90;;;;;;5014774;28;19955;-76
2023/01/19 04:38:47;;;;;;;;;;;4.20;99.90;;;;;;5007777;28;20268;-73
2023/01/19 04:41:13;;;;;;;;;;;4.00;99.90;;;;;;5014035;28;19926;-76
2023/01/19 04:43:38;;;;;;;;;;;4.10;99.90;;;;;;5005306;28;19917;-74
2023/01/19 04:46:04;;;;;;;;;;;4.10;99.90;;;;;;5004022;28;20298;-75
2023/01/19 04:48:29;;;;;;;;;;;4.30;99.90;;;;;;5004681;28;19971;-75
2023/01/19 04:50:55;;;;;;;;;;;4.30;99.90;;;;;;5011595;28;19959;-75
2023/01/19 04:53:20;;;;;;;;;;;4.40;99.90;;;;;;5005990;28;19925;-75
2023/01/19 04:55:46;;;;;;;;;;;4.60;99.90;;;;;;5005875;28;19924;-77
2023/01/19 04:58:12;;;;;;;;;;;4.50;99.90;;;;;;5017904;28;19920;-75
2023/01/19 05:00:37;;;;;;;;;;;4.50;99.90;;;;;;5004027;28;20370;-74
2023/01/19 05:03:03;;;;;;;;;;;4.40;99.90;;;;;;5006729;28;20614;-78
2023/01/19 05:05:29;;;;;;;;;;;4.50;99.90;;;;;;5005029;28;20399;-78
2023/01/19 05:07:55;;;;;;;;;;;4.30;99.90;;;;;;5005414;28;19924;-74
2023/01/19 05:10:20;;;;;;;;;;;4.30;99.90;;;;;;5006074;28;19925;-76
2023/01/19 05:12:46;;;;;;;;;;;4.50;99.90;;;;;;5009128;28;19999;-74
2023/01/19 05:15:11;;;;;;;;;;;4.50;99.90;;;;;;5005530;28;19924;-79
2023/01/19 05:17:37;;;;;;;;;;;4.40;99.90;;;;;;5006273;28;20221;-74
2023/01/19 05:20:03;;;;;;;;;;;4.30;99.90;;;;;;5013459;28;20389;-73
2023/01/19 05:22:28;;;;;;;;;;;4.30;99.90;;;;;;5025787;28;19910;-80
2023/01/19 05:24:54;;;;;;;;;;;4.20;99.90;;;;;;5013717;28;19955;-80
2023/01/19 05:27:19;;;;;;;;;;;4.30;99.90;;;;;;5026889;28;19921;-79
2023/01/19 05:29:45;;;;;;;;;;;4.20;99.90;;;;;;5009715;28;19953;-75
2023/01/19 05:32:10;;;;;;;;;;;4.20;99.90;;;;;;5014260;28;19913;-75
2023/01/19 05:34:36;;;;;;;;;;;4.20;99.90;;;;;;5007278;28;20397;-73
2023/01/19 05:37:01;;;;;;;;;;;4.20;99.90;;;;;;5007233;28;19913;-73
2023/01/19 05:39:28;;;;;;;;;;;4.30;99.90;;;;;;5008640;28;19928;-74
2023/01/19 05:41:53;;;;;;;;;;;4.20;99.90;;;;;;5003343;28;20003;-76
2023/01/19 05:44:19;;;;;;;;;;;4.30;99.90;;;;;;5014522;28;19913;-75
2023/01/19 05:46:45;;;;;;;;;;;4.20;99.90;;;;;;5003690;28;19996;-74
2023/01/19 05:49:11;;;;;;;;;;;4.30;99.90;;;;;;5008773;28;20399;-74
2023/01/19 05:51:44;;;;;;;;;;;4.40;99.90;;;;;;4999976;28;19996;-74
2023/01/19 05:54:11;;;;;;;;;;;4.40;99.90;;;;;;5009574;28;19945;-77
2023/01/19 05:56:38;;;;;;;;;;;4.40;99.90;;;;;;5008646;28;19924;-73
2023/01/19 05:59:03;;;;;;;;;;;4.40;99.90;;;;;;5011910;28;20342;-74
2023/01/19 06:01:29;;;;;;;;;;;4.30;99.90;;;;;;5003163;28;19917;-74
2023/01/19 06:03:54;;;;;;;;;;;4.20;99.90;;;;;;5012237;28;19910;-75
2023/01/19 06:06:20;;;;;;;;;;;4.10;99.90;;;;;;5006024;28;19917;-76
2023/01/19 06:08:46;;;;;;;;;;;4.00;99.90;;;;;;5009672;28;20397;-75
2023/01/19 06:11:11;;;;;;;;;;;4.00;99.90;;;;;;5006386;28;19909;-76
2023/01/19 06:13:38;;;;;;;;;;;3.90;99.90;;;;;;5005294;28;20473;-74
2023/01/19 06:16:05;;;;;;;;;;;4.00;99.90;;;;;;5007446;28;20001;-76
2023/01/19 06:18:30;;;;;;;;;;;3.90;99.90;;;;;;5012731;28;20330;-76
2023/01/19 06:20:59;;;;;;;;;;;3.80;99.90;;;;;;5007098;28;20063;-75
2023/01/19 06:23:25;;;;;;;;;;;3.80;99.90;;;;;;5010542;28;19941;-73
2023/01/19 06:25:51;;;;;;;;;;;3.70;99.90;;;;;;5004336;28;19913;-73
2023/01/19 06:28:16;;;;;;;;;;;3.70;99.90;;;;;;5004147;28;20770;-73
2023/01/19 06:30:42;;;;;;;;;;;3.60;99.90;;;;;;5015164;28;19944;-77
2023/01/19 06:33:08;;;;;;;;;;;3.60;99.90;;;;;;5030707;28;19916;-78
2023/01/19 06:35:34;;;;;;;;;;;3.60;99.90;;;;;;5022433;28;20004;-74
2023/01/19 06:38:00;;;;;;;;;;;3.60;99.90;;;;;;5016470;28;20176;-74
2023/01/19 06:40:25;;;;;;;;;;;3.60;99.90;;;;;;5017094;28;19917;-71
2023/01/19 06:42:51;;;;;;;;;;;3.50;99.90;;;;;;5020352;28;20176;-71
2023/01/19 06:45:17;;;;;;;;;;;3.60;99.90;;;;;;5013292;28;19932;-71
2023/01/19 06:47:45;;;;;;;;;;;3.60;99.90;;;;;;5008713;28;20495;-71
2023/01/19 06:50:11;;;;;;;;;;;3.50;99.90;;;;;;5012182;28;20383;-72
2023/01/19 06:52:41;;;;;;;;;;;3.60;99.90;;;;;;5004606;28;20026;-72
2023/01/19 06:55:10;;;;;;;;;;;3.60;99.90;;;;;;5007337;28;20288;-72
2023/01/19 06:57:37;;;;;;;;;;;3.70;99.90;;;;;;5010811;28;19944;-72
2023/01/19 07:00:06;;;;;;;;;;;3.70;99.90;;;;;;5021004;28;19917;-72
2023/01/19 07:02:35;;;;;;;;;;;3.80;99.90;;;;;;5020268;28;19971;-72
2023/01/19 07:05:00;;;;;;;;;;;3.90;99.90;;;;;;5008010;28;20321;-71
2023/01/19 07:07:26;;;;;;;;;;;3.90;99.90;;;;;;5009340;28;19939;-71
2023/01/19 07:09:52;;;;;;;;;;;4.00;99.90;;;;;;5011095;28;19959;-72
2023/01/19 07:12:17;;;;;;;;;;;4.10;99.90;;;;;;5009132;28;19913;-72
2023/01/19 07:14:43;;;;;;;;;;;4.20;99.90;;;;;;5005795;28;20287;-71
2023/01/19 07:17:09;;;;;;;;;;;4.30;99.90;;;;;;5011659;28;20410;-72
2023/01/19 07:19:35;;;;;;;;;;;4.50;99.90;;;;;;5010691;28;19913;-72
2023/01/19 07:22:02;;;;;;;;;;;4.60;99.90;;;;;;5002837;28;19910;-72
2023/01/19 07:24:29;;;;;;;;;;;4.60;99.90;;;;;;5002881;28;19958;-72
2023/01/19 07:26:55;;;;;;;;;;;4.40;99.90;;;;;;5015433;28;19916;-72
2023/01/19 07:29:20;;;;;;;;;;;4.30;99.90;;;;;;5020145;28;19909;-72
2023/01/19 07:31:47;;;;;;;;;;;4.30;99.90;;;;;;5002380;28;19941;-72
2023/01/19 07:34:13;;;;;;;;;;;4.30;99.90;;;;;;5009104;28;20094;-71
2023/01/19 07:36:39;;;;;;;;;;;4.20;99.90;;;;;;5010954;28;19909;-72
2023/01/19 07:39:04;;;;;;;;;;;4.10;99.90;;;;;;5004671;28;20445;-72
2023/01/19 07:41:30;;;;;;;;;;;4.00;99.90;;;;;;5005882;28;20299;-72
2023/01/19 07:43:55;;;;;;;;;;;4.10;99.90;;;;;;5010391;28;19933;-72
2023/01/19 07:46:21;;;;;;;;;;;4.00;99.90;;;;;;5002541;28;19993;-72
2023/01/19 07:48:46;;;;;;;;;;;4.00;99.90;;;;;;5006971;28;19924;-72
2023/01/19 07:51:16;;;;;;;;;;;4.00;99.90;;;;;;5011399;28;20061;-72
2023/01/19 07:53:42;;;;;;;;;;;4.00;99.90;;;;;;5016745;28;20004;-72
2023/01/19 07:56:08;;;;;;;;;;;4.10;99.90;;;;;;5002387;28;19992;-72
2023/01/19 07:58:34;;;;;;;;;;;4.20;99.90;;;;;;5000004;28;20279;-71
2023/01/19 08:01:00;;;;;;;;;;;4.20;99.90;;;;;;5009220;28;20420;-71
2023/01/19 08:03:25;;;;;;;;;;;4.10;99.90;;;;;;5005692;28;19916;-72
2023/01/19 08:05:51;;;;;;;;;;;4.00;99.90;;;;;;5004863;28;19916;-72
2023/01/19 08:08:17;;;;;;;;;;;3.90;99.90;;;;;;5004406;28;19918;-73
2023/01/19 08:10:43;;;;;;;;;;;3.90;99.90;;;;;;5012815;28;19968;-73
2023/01/19 08:13:08;;;;;;;;;;;3.80;99.90;;;;;;5006968;28;19967;-73
2023/01/19 08:15:34;;;;;;;;;;;3.80;99.90;;;;;;5011740;28;19914;-73
2023/01/19 08:18:01;;;;;;;;;;;3.90;99.90;;;;;;5015964;28;20275;-72
2023/01/19 08:20:27;;;;;;;;;;;3.90;99.90;;;;;;5007089;28;20238;-71
2023/01/19 08:22:58;;;;;;;;;;;3.90;99.90;;;;;;5011580;28;19909;-73
2023/01/19 08:25:34;;;;;;;;;;;4.00;99.90;;;;;;5012679;28;19910;-72
2023/01/19 08:27:59;;;;;;;;;;;4.00;99.90;;;;;;5010731;28;19909;-72
2023/01/19 08:30:25;;;;;;;;;;;4.00;99.90;;;;;;5014406;28;20502;-72
2023/01/19 08:32:52;;;;;;;;;;;4.00;99.90;;;;;;5016116;28;19913;-72
2023/01/19 08:35:17;;;;;;;;;;;4.00;99.90;;;;;;5007396;28;19953;-72
2023/01/19 08:37:43;;;;;;;;;;;4.00;99.90;;;;;;5006920;28;20399;-71
2023/01/19 08:40:09;;;;;;;;;;;3.90;99.90;;;;;;5008754;28;20118;-72
2023/01/19 08:42:34;;;;;;;;;;;3.90;99.90;;;;;;5008628;28;19913;-73
2023/01/19 08:45:00;;;;;;;;;;;3.90;99.90;;;;;;5010059;28;20019;-75
2023/01/19 08:47:25;;;;;;;;;;;3.90;99.90;;;;;;5005079;28;19910;-71
2023/01/19 08:49:51;;;;;;;;;;;3.90;99.90;;;;;;5004875;28;19916;-72
2023/01/19 08:52:16;;;;;;;;;;;3.90;99.90;;;;;;5011190;28;19910;-72
2023/01/19 08:54:42;;;;;;;;;;;3.90;99.90;;;;;;5018902;28;19968;-71
2023/01/19 08:57:07;;;;;;;;;;;3.90;99.90;;;;;;5016576;28;19918;-72
2023/01/19 08:59:33;;;;;;;;;;;3.90;99.90;;;;;;5006787;28;20058;-72
2023/01/19 09:01:58;;;;;;;;;;;3.90;99.90;;;;;;5014851;28;20363;-72
2023/01/19 09:04:24;;;;;;;;;;;3.80;99.90;;;;;;5002843;28;20004;-72
2023/01/19 09:06:50;;;;;;;;;;;3.90;99.90;;;;;;5012369;28;19967;-72
2023/01/19 09:09:15;;;;;;;;;;;3.90;99.90;;;;;;5013999;28;20325;-72
2023/01/19 09:11:41;;;;;;;;;;;3.90;99.90;;;;;;5009812;28;19910;-72
2023/01/19 09:14:07;;;;;;;;;;;4.00;99.90;;;;;;5014930;28;19932;-71
2023/01/19 09:16:33;;;;;;;;;;;4.00;99.90;;;;;;5013188;28;20212;-72
2023/01/19 09:18:58;;;;;;;;;;;3.90;99.90;;;;;;5013837;28;19936;-73
2023/01/19 09:21:24;;;;;;;;;;;3.90;99.90;;;;;;5030530;28;19967;-73
2023/01/19 09:23:49;;;;;;;;;;;3.90;99.90;;;;;;5026005;28;19921;-72
2023/01/19 09:26:15;;;;;;;;;;;4.00;99.90;;;;;;5018582;28;20005;-71
2023/01/19 09:28:41;;;;;;;;;;;4.00;99.90;;;;;;5019843;28;20009;-72
2023/01/19 09:31:07;;;;;;;;;;;4.00;99.90;;;;;;5015072;28;19909;-71
2023/01/19 09:33:33;;;;;;;;;;;4.00;99.90;;;;;;5017384;28;19910;-72
2023/01/19 09:35:59;;;;;;;;;;;4.10;99.90;;;;;;5009954;28;19920;-72
2023/01/19 09:38:25;;;;;;;;;;;4.10;99.90;;;;;;5020354;28;19913;-72
2023/01/19 09:40:53;;;;;;;;;;;4.10;99.90;;;;;;5009664;28;19963;-72
2023/01/19 09:43:33;;;;;;;;;;;4.00;99.90;;;;;;5012695;28;19910;-71
2023/01/19 09:46:01;;;;;;;;;;;4.00;99.90;;;;;;5005589;28;19959;-72
2023/01/19 09:48:33;;;;;;;;;;;4.10;99.90;;;;;;5005262;28;19913;-71
2023/01/19 09:51:01;;;;;;;;;;;4.10;99.90;;;;;;5010913;28;20043;-73
2023/01/19 09:53:35;;;;;;;;;;;4.10;99.90;;;;;;5013009;28;19913;-72
2023/01/19 09:56:01;;;;;;;;;;;4.10;99.90;;;;;;5018280;28;19909;-72
2023/01/19 09:58:27;;;;;;;;;;;4.10;99.90;;;;;;5017672;28;19924;-71
2023/01/19 10:01:07;;;;;;;;;;;4.20;99.90;;;;;;5019000;28;19918;-73
2023/01/19 10:03:35;;;;;;;;;;;4.20;99.90;;;;;;5010355;28;19913;-72
2023/01/19 10:06:02;;;;;;;;;;;4.20;99.90;;;;;;5013084;28;19913;-74
2023/01/19 10:08:51;;;;;;;;;;;4.30;99.90;;;;;;5013003;28;20114;-76
2023/01/19 10:11:24;;;;;;;;;;;4.30;99.90;;;;;;5015011;28;19909;-75
2023/01/19 10:13:51;;;;;;;;;;;4.40;99.90;;;;;;5015827;28;19964;-73
2023/01/19 10:16:32;;;;;;;;;;;4.50;99.90;;;;;;5013260;28;19913;-74
2023/01/19 10:19:17;;;;;;;;;;;4.50;99.90;;;;;;5003686;28;20104;-74
2023/01/19 10:21:43;;;;;;;;;;;4.60;99.90;;;;;;5012952;28;19914;-73
2023/01/19 10:24:22;;;;;;;;;;;4.60;99.90;;;;;;5023151;28;20007;-74
2023/01/19 10:26:51;;;;;;;;;;;4.60;99.90;;;;;;5024653;28;19920;-74
2023/01/19 10:29:35;;;;;;;;;;;4.70;99.90;;;;;;5019885;28;19920;-74
2023/01/19 10:32:06;;;;;;;;;;;4.70;99.90;;;;;;5035947;28;19925;-74
2023/01/19 10:34:32;;;;;;;;;;;4.80;99.90;;;;;;5028893;28;19920;-75
2023/01/19 10:37:02;;;;;;;;;;;5.00;99.90;;;;;;5016866;28;19917;-74
2023/01/19 10:39:28;;;;;;;;;;;5.10;99.90;;;;;;5024555;28;20003;-73
2023/01/19 10:41:57;;;;;;;;;;;5.00;99.90;;;;;;5010185;28;20023;-73
2023/01/19 10:44:24;;;;;;;;;;;5.10;99.90;;;;;;5019035;28;19909;-74
2023/01/19 10:46:50;;;;;;;;;;;5.30;99.90;;;;;;5009342;28;19943;-74
2023/01/19 10:49:21;;;;;;;;;;;5.40;99.90;;;;;;5012904;28;19972;-74
2023/01/19 10:51:49;;;;;;;;;;;5.30;99.90;;;;;;5014307;28;19988;-74
2023/01/19 10:54:15;;;;;;;;;;;5.30;99.90;;;;;;5012188;28;19910;-74
2023/01/19 10:56:41;;;;;;;;;;;5.30;99.90;;;;;;5011204;28;20223;-74
2023/01/19 10:59:26;;;;;;;;;;;5.30;99.90;;;;;;5016799;28;20298;-75
2023/01/19 11:02:03;;;;;;;;;;;5.20;99.90;;;;;;5014595;28;20416;-73
2023/01/19 11:04:29;;;;;;;;;;;5.10;99.90;;;;;;5003977;28;19988;-73
2023/01/19 11:07:17;;;;;;;;;;;5.10;99.90;;;;;;5011270;28;20449;-74
2023/01/19 11:09:43;;;;;;;;;;;5.10;99.90;;;;;;5003473;28;20210;-73
2023/01/19 11:12:20;;;;;;;;;;;5.10;99.90;;;;;;5007472;28;19910;-75
2023/01/19 11:14:47;;;;;;;;;;;5.10;99.90;;;;;;5014882;28;19910;-75
2023/01/19 11:17:18;;;;;;;;;;;5.10;99.90;;;;;;5009092;28;19985;-73
2023/01/19 11:19:51;;;;;;;;;;;5.20;99.90;;;;;;5002029;28;19995;-74
2023/01/19 11:22:21;;;;;;;;;;;5.20;99.90;;;;;;5012791;28;19909;-74
2023/01/19 11:24:46;;;;;;;;;;;5.20;99.90;;;;;;5011286;28;19910;-73
2023/01/19 11:27:15;;;;;;;;;;;5.20;99.90;;;;;;5014596;28;20436;-73
2023/01/19 11:29:46;;;;;;;;;;;5.10;99.90;;;;;;5014999;28;20390;-73
2023/01/19 11:32:17;;;;;;;;;;;5.00;99.90;;;;;;5005731;28;19959;-74
2023/01/19 11:34:42;;;;;;;;;;;4.90;99.90;;;;;;5018334;28;19964;-74
2023/01/19 11:37:25;;;;;;;;;;;4.80;99.90;;;;;;5007116;28;19910;-74
2023/01/19 11:39:52;;;;;;;;;;;4.80;99.90;;;;;;5022353;28;19913;-73
2023/01/19 11:42:18;;;;;;;;;;;4.70;99.90;;;;;;5013153;28;19996;-74
2023/01/19 11:44:46;;;;;;;;;;;4.70;99.90;;;;;;5006254;28;19909;-73
2023/01/19 11:47:24;;;;;;;;;;;4.70;99.90;;;;;;5002853;28;19944;-73
2023/01/19 11:49:58;;;;;;;;;;;5.00;99.90;;;;;;5010188;28;19913;-72
2023/01/19 11:52:26;;;;;;;;;;;5.30;99.90;;;;;;5010197;28;20145;-75
2023/01/19 11:54:55;;;;;;;;;;;5.20;99.90;;;;;;5019692;28;19910;-73
2023/01/19 11:57:20;;;;;;;;;;;5.00;99.90;;;;;;5018952;28;19972;-74
2023/01/19 11:59:47;;;;;;;;;;;5.00;99.90;;;;;;5013526;28;19961;-73
2023/01/19 12:02:24;;;;;;;;;;;4.90;99.90;;;;;;5009385;28;19999;-75
2023/01/19 12:04:51;;;;;;;;;;;4.80;99.90;;;;;;5013310;28;19909;-73
2023/01/19 12:07:21;;;;;;;;;;;5.10;99.90;;;;;;5009743;28;19925;-74
2023/01/19 12:09:49;;;;;;;;;;;5.10;99.90;;;;;;5012466;28;19910;-72
2023/01/19 12:12:32;;;;;;;;;;;5.20;99.90;;;;;;5006614;28;19910;-75
2023/01/19 12:15:17;;;;;;;;;;;5.60;99.90;;;;;;5019493;28;20395;-73
2023/01/19 12:17:46;;;;;;;;;;;5.90;99.90;;;;;;5018008;28;19917;-74
2023/01/19 12:20:20;;;;;;;;;;;6.10;99.90;;;;;;5011740;28;19916;-73
2023/01/19 12:23:07;;;;;;;;;;;6.20;99.90;;;;;;5029090;28;19967;-76
2023/01/19 12:25:45;;;;;;;;;;;6.40;99.90;;;;;;5016313;28;20402;-74
2023/01/19 12:28:13;;;;;;;;;;;6.50;99.90;;;;;;5003897;28;20314;-73
2023/01/19 12:30:38;;;;;;;;;;;6.50;99.90;;;;;;5014449;28;19917;-73
2023/01/19 12:33:23;;;;;;;;;;;6.60;99.90;;;;;;5012416;28;19964;-75
2023/01/19 12:36:01;;;;;;;;;;;6.50;99.90;;;;;;4997463;28;19964;-75
2023/01/19 12:38:40;;;;;;;;;;;6.10;99.90;;;;;;5009703;28;20314;-74
2023/01/19 12:41:20;;;;;;;;;;;6.00;99.90;;;;;;5001593;28;19917;-73
2023/01/19 12:44:05;;;;;;;;;;;6.00;99.90;;;;;;5015536;28;19916;-74
2023/01/19 12:46:30;;;;;;;;;;;6.30;99.90;;;;;;5010399;28;20278;-72
2023/01/19 12:49:08;;;;;;;;;;;6.80;99.90;;;;;;5007789;28;20047;-74
2023/01/19 12:51:34;;;;;;;;;;;7.10;99.90;;;;;;5030642;28;19916;-73
2023/01/19 12:54:00;;;;;;;;;;;7.10;99.90;;;;;;5021300;28;19910;-74
2023/01/19 12:56:28;;;;;;;;;;;6.80;99.90;;;;;;5012423;28;20270;-75
2023/01/19 12:58:54;;;;;;;;;;;6.90;99.90;;;;;;5015678;28;19936;-72
2023/01/19 13:01:20;;;;;;;;;;;6.90;99.90;;;;;;5005882;28;19909;-74
2023/01/19 13:03:46;;;;;;;;;;;6.70;99.90;;;;;;5009988;28;19909;-75
2023/01/19 13:06:11;;;;;;;;;;;6.10;99.90;;;;;;5023928;28;19921;-74
2023/01/19 13:08:57;;;;;;;;;;;5.60;99.90;;;;;;5011029;28;19909;-73
2023/01/19 13:11:23;;;;;;;;;;;5.80;99.90;;;;;;5024017;28;19932;-74
2023/01/19 13:13:48;;;;;;;;;;;5.90;99.90;;;;;;5018643;28;19943;-75
2023/01/19 13:16:17;;;;;;;;;;;6.30;99.90;;;;;;5021192;28;19909;-75
2023/01/19 13:18:43;;;;;;;;;;;6.50;99.90;;;;;;5020714;28;19924;-75
2023/01/19 13:21:10;;;;;;;;;;;6.20;99.90;;;;;;5023630;28;19943;-76
2023/01/19 13:23:41;;;;;;;;;;;6.30;99.90;;;;;;5011126;28;19920;-77
2023/01/19 13:26:11;;;;;;;;;;;6.40;99.90;;;;;;5016190;28;20020;-75
2023/01/19 13:28:39;;;;;;;;;;;6.60;99.90;;;;;;5008174;28;19953;-74
2023/01/19 13:31:05;;;;;;;;;;;6.50;99.90;;;;;;5010106;28;19909;-75
2023/01/19 13:33:46;;;;;;;;;;;6.20;99.90;;;;;;5010785;28;19996;-75
2023/01/19 13:36:18;;;;;;;;;;;6.10;99.90;;;;;;5012782;28;19910;-73
2023/01/19 13:38:44;;;;;;;;;;;6.00;99.90;;;;;;5013763;28;20589;-73
2023/01/19 13:41:13;;;;;;;;;;;6.00;99.90;;;;;;5006280;28;20442;-76
2023/01/19 13:43:40;;;;;;;;;;;5.90;99.90;;;;;;5006572;28;19914;-76
2023/01/19 13:46:08;;;;;;;;;;;5.90;99.90;;;;;;5007223;28;19933;-73
2023/01/19 13:48:34;;;;;;;;;;;5.90;99.90;;;;;;5018352;28;19913;-73
2023/01/19 13:51:01;;;;;;;;;;;5.80;99.90;;;;;;5010984;28;20111;-74
2023/01/19 13:53:28;;;;;;;;;;;5.90;99.90;;;;;;5020184;28;20602;-74
2023/01/19 13:56:15;;;;;;;;;;;5.90;99.90;;;;;;5017118;28;19971;-74
2023/01/19 13:58:41;;;;;;;;;;;5.80;99.90;;;;;;5011982;28;19944;-74
2023/01/19 14:01:18;;;;;;;;;;;5.60;99.90;;;;;;5012348;28;20004;-73
2023/01/19 14:03:50;;;;;;;;;;;5.60;99.90;;;;;;5010659;28;19914;-76
2023/01/19 14:06:36;;;;;;;;;;;5.50;99.90;;;;;;5024633;28;19979;-75
2023/01/19 14:09:06;;;;;;;;;;;5.60;99.90;;;;;;5020566;28;19928;-75
2023/01/19 14:11:33;;;;;;;;;;;5.70;99.90;;;;;;5011039;28;19916;-74
2023/01/19 14:13:58;;;;;;;;;;;5.70;99.90;;;;;;5023432;28;19941;-74
2023/01/19 14:16:24;;;;;;;;;;;5.50;99.90;;;;;;5019185;28;19917;-76
2023/01/19 14:18:59;;;;;;;;;;;5.50;99.90;;;;;;5033799;28;19924;-75
2023/01/19 14:21:35;;;;;;;;;;;5.40;99.90;;;;;;5026336;28;20050;-76
2023/01/19 14:24:17;;;;;;;;;;;5.40;99.90;;;;;;5028312;28;20003;-75
2023/01/19 14:26:47;;;;;;;;;;;5.40;99.90;;;;;;5011473;28;20266;-75
2023/01/19 14:29:32;;;;;;;;;;;5.40;99.90;;;;;;5017097;28;20196;-77
2023/01/19 14:32:05;;;;;;;;;;;5.30;99.90;;;;;;5008017;28;20257;-74
2023/01/19 14:34:31;;;;;;;;;;;5.20;99.90;;;;;;5014043;28;19918;-74
2023/01/19 14:36:57;;;;;;;;;;;5.20;99.90;;;;;;5015406;28;19940;-75
2023/01/19 14:39:24;;;;;;;;;;;5.10;99.90;;;;;;5020639;28;20168;-77
2023/01/19 14:41:51;;;;;;;;;;;5.10;99.90;;;;;;5011188;28;19910;-77
2023/01/19 14:44:20;;;;;;;;;;;5.20;99.90;;;;;;5014757;28;20083;-75
2023/01/19 14:46:46;;;;;;;;;;;5.10;99.90;;;;;;5009034;28;20179;-74
2023/01/19 14:49:15;;;;;;;;;;;5.10;99.90;;;;;;5011511;28;20391;-74